• Join FlightAware (Why Join?)
  • Login
  • US Flag 
12:45AM EST


 

Airport Tracker/Info


-or-


 

Live Flight TrackerFlight Track Log ✈ N884WT ✈ 09-Mar-2014 ✈ KASE - KCRQ

Flight Track Log - Related Links

Times and Time Zones

All times are in EDT time to prevent confusion due to time zone crossing. See the N884WT flight status page for this flight to view local times or setup timezone preferences in your user account.

Time Position Orientation Groundspeed Altitude Reporting Facility
EDT Latitude Longitude Course Direction KTS MPH feet Rate Location/Type
02:11PM 39.2911 -106.9292 259° West 276 318 11,600  Level Denver Center
02:12PM 39.3161 -107.0428 286° West 317 365 13,800 2,580 Climbing Denver Center
02:13PM 39.3625 -107.1544 298° West 354 407 16,900 2,820 Climbing Denver Center
02:14PM 39.3397 -107.2986 258° West 376 433 19,700 2,280 Climbing Denver Center
02:15PM 39.3158 -107.4331 257° West 396 456 21,700 2,220 Climbing Denver Center
02:16PM 39.2853 -107.5989 257° West 420 483 24,300 2,160 Climbing Denver Center
02:17PM 39.2803 -107.6616 259° West  Level FlightAware Approximate
02:17PM 39.2569 -107.7492 256° West 443 510 26,200  Level Denver Center
02:18PM 39.2289 -107.9042 257° West 459 528 28,500 2,100 Climbing Denver Center
02:19PM 39.1944 -108.0847 256° West 463 533 30,600 2,160 Climbing Denver Center
02:20PM 39.1600 -108.2403 254° West 468 539 33,000 2,220 Climbing Denver Center
02:21PM 39.0694 -108.3953 233° Southwest 483 556 35,300 2,160 Climbing Denver Center
02:22PM 38.9869 -108.5247 231° Southwest 486 559 37,400 2,100 Climbing Denver Center
02:23PM 38.8914 -108.6711 230° Southwest 480 552 39,700 1,920 Climbing Denver Center
02:24PM 38.8106 -108.7947 230° Southwest 472 543 41,400 1,500 Climbing Denver Center
02:26PM 38.7175 -108.9381 230° Southwest 469 540 42,900 720 Climbing Denver Center
02:27PM 38.6372 -109.0606 230° Southwest 468 539 43,000  Climbing Denver Center
02:28PM 38.5589 -109.1808 230° Southwest 463 533 43,000  Level Denver Center
02:29PM 38.4644 -109.3225 230° Southwest 467 537 43,000  Level Denver Center
02:30PM 38.3839 -109.4450 230° Southwest 468 539 43,000  Level Denver Center
02:31PM 38.2906 -109.5828 229° Southwest 463 533 43,000  Level Denver Center
02:32PM 38.2092 -109.7017 229° Southwest 462 532 43,000  Level Denver Center
02:33PM 38.1150 -109.8444 230° Southwest 468 539 43,000  Level Denver Center
02:34PM 38.0253 -109.9756 229° Southwest 468 539 43,000  Level Denver Center
02:35PM 37.9456 -110.0944 230° Southwest 467 537 43,000  Level Denver Center
02:36PM 37.8514 -110.2347 230° Southwest 467 537 43,000  Level Denver Center
02:37PM 37.7706 -110.3536 229° Southwest 467 537 43,000  Level Denver Center
02:38PM 37.6742 -110.4931 229° Southwest 468 539 43,000  Level Denver Center
02:39PM 37.5956 -110.6064 229° Southwest 470 541 43,000  Level Denver Center
02:40PM 37.5089 -110.7317 229° Southwest 471 542 43,000  Level Denver Center
02:41PM 37.4050 -110.8811 229° Southwest 471 542 43,000  Level Denver Center
02:42PM 37.3194 -111.0042 229° Southwest 470 541 43,000  Level Denver Center
02:43PM 37.2328 -111.1278 229° Southwest 470 541 43,000  Level Denver Center
02:44PM 37.1469 -111.2522 229° Southwest 471 542 43,000  Level Denver Center
02:45PM 37.0597 -111.3750 228° Southwest 471 542 43,000  Level Denver Center
02:46PM 36.9767 -111.4958 229° Southwest 462 532 43,000  Level Denver Center
02:47PM 36.8906 -111.6169 228° Southwest 460 529 43,000  Level Denver Center
02:48PM 36.7828 -111.7647 228° Southwest 470 541 43,000  Level Denver Center
02:49PM 36.6953 -111.8875 228° Southwest 473 544 43,000  Level Denver Center
02:50PM 36.6064 -112.0108 228° Southwest 473 544 43,000  Level Denver Center
02:51PM 36.5194 -112.1311 228° Southwest 471 542 43,000  Level Denver Center
02:53PM 36.3981 -112.2983 228° Southwest 465 535 43,000  Level Los Angeles Center
02:54PM 36.3122 -112.4147 228° Southwest 459 528 43,000  Level Los Angeles Center
02:55PM 36.2264 -112.5344 228° Southwest 463 533 43,000  Level Los Angeles Center
02:56PM 36.1222 -112.6747 227° Southwest 461 531 43,000  Level Los Angeles Center
02:57PM 36.0381 -112.7922 228° Southwest 458 527 43,000  Level Los Angeles Center
02:58PM 35.9481 -112.9125 227° Southwest 461 531 43,000  Level Los Angeles Center
02:59PM 35.8625 -113.0289 228° Southwest 462 532 43,000  Level Los Angeles Center
03:00PM 35.7764 -113.1422 227° Southwest 457 526 43,000  Level Los Angeles Center
03:01PM 35.6822 -113.2689 228° Southwest 457 526 43,000  Level Los Angeles Center
03:02PM 35.5903 -113.3917 227° Southwest 456 525 43,000  Level Los Angeles Center
03:03PM 35.5053 -113.5050 227° Southwest 456 525 43,000  Level Los Angeles Center
03:04PM 35.4208 -113.6169 227° Southwest 455 524 43,000  Level Los Angeles Center
03:05PM 35.3361 -113.7286 227° Southwest 452 520 43,000  Level Los Angeles Center
03:06PM 35.2514 -113.8411 227° Southwest 452 520 43,000  Level Los Angeles Center
03:07PM 35.1500 -113.9744 227° Southwest 454 522 43,000 -600 Level Los Angeles Center
03:08PM 35.0644 -114.0864 227° Southwest 451 519 41,800 -1,800 Descending Los Angeles Center
03:09PM 34.9744 -114.2019 226° Southwest 462 532 39,300 -2,460 Descending Los Angeles Center
03:10PM 34.8839 -114.3200 227° Southwest 472 543 36,800 -2,460 Descending Los Angeles Center
03:11PM 34.7950 -114.4361 227° Southwest 470 541 34,300 -1,380 Descending Los Angeles Center
03:12PM 34.6914 -114.5864 230° Southwest 480 552 34,000 -180 Descending Los Angeles Center
03:13PM 34.6083 -114.7111 231° Southwest 473 544 34,000  Level Los Angeles Center
03:14PM 34.5094 -114.8189 222° Southwest 477 549 34,000 -120 Level Los Angeles Center
03:16PM 34.4078 -114.9236 220° Southwest 480 552 33,800 -840 Descending Los Angeles Center
03:17PM 34.3172 -115.0403 227° Southwest 477 549 32,300 -1,440 Descending Los Angeles Center
03:18PM 34.2414 -115.1725 235° Southwest 479 551 30,800 -1,620 Descending Los Angeles Center
03:19PM 34.1442 -115.3283 233° Southwest 483 556 29,000 -1,620 Descending Los Angeles Center
03:20PM 34.0650 -115.4597 234° Southwest 486 559 27,500 -1,500 Descending Los Angeles Center
03:21PM 33.9839 -115.5900 233° Southwest 486 559 26,000 -1,500 Descending Los Angeles Center
03:22PM 33.9044 -115.7175 233° Southwest 479 551 24,500 -1,860 Descending Los Angeles Center
03:23PM 33.8269 -115.8442 234° Southwest 472 543 22,200 -2,520 Descending Los Angeles Center
03:24PM 33.7531 -115.9625 233° Southwest 453 521 19,300 -2,640 Descending Los Angeles Center
03:25PM 33.6672 -116.0983 233° Southwest 431 496 16,800 -2,040 Descending Los Angeles Center
03:26PM 33.6022 -116.2125 236° Southwest 419 482 15,100 -1,380 Descending Los Angeles Center
03:27PM 33.5436 -116.3281 239° Southwest 411 473 14,000 -540 Descending Los Angeles Center
03:28PM 33.4861 -116.4436 239° Southwest 408 470 14,000 -420 Level Los Angeles Center
03:29PM 33.4286 -116.5583 239° Southwest 406 467 13,200 -1,020 Descending Los Angeles Center
03:30PM 33.3603 -116.6933 239° Southwest 400 460 12,000 -1,680 Descending Los Angeles Center
03:31PM 33.3053 -116.8003 238° Southwest 388 447 9,800 -1,980 Descending Los Angeles Center
03:32PM 33.2622 -116.8858 239° Southwest 319 367 8,000 -1,800 Descending Los Angeles Center
03:33PM 33.2233 -116.9633 239° Southwest 286 329 6,100 -1,440 Descending Los Angeles Center
03:34PM 33.1906 -117.0258 238° Southwest 247 284 5,000 -1,260 Descending Los Angeles Center
03:35PM 33.1597 -117.0961 242° Southwest 221 254 3,500 -1,260 Descending Los Angeles Center
03:36PM 33.1500 -117.1500 258° West 161 185 2,500 -960 Descending Southern California TRACON
03:37PM 33.1500 -117.2000 270° West 149 171 1,600 -900 Descending Southern California TRACON
03:38PM 33.1333 -117.2500 248° West 151 174 800 -840 Descending Southern California TRACON